Time;durP1;ratioP1;P1;durP2;ratioP2;P2;SDS_P1;SDS_P2;PMS_P1;PMS_P2;Temp;Humidity;BMP_temperature;BMP_pressure;BME280_temperature;BME280_humidity;BME280_pressure;Samples;Min_cycle;Max_cycle;Signal;HPM_P1;HPM_P2
2023/02/25 00:00:43;;;;;;;74.45;44.38;;;10.20;99.90;;;;;;6245174;23;20004;-69
2023/02/25 00:03:09;;;;;;;75.27;44.40;;;10.20;99.90;;;;;;6245089;23;20031;-69
2023/02/25 00:05:39;;;;;;;71.00;45.03;;;10.20;99.90;;;;;;6244863;23;20019;-70
2023/02/25 00:08:05;;;;;;;71.82;43.65;;;10.20;99.90;;;;;;6245270;23;20000;-71
2023/02/25 00:10:32;;;;;;;69.43;42.95;;;10.20;99.90;;;;;;6245175;23;20000;-69
2023/02/25 00:12:58;;;;;;;70.88;44.45;;;10.20;99.90;;;;;;6245030;23;20075;-70
2023/02/25 00:15:24;;;;;;;69.05;43.50;;;10.20;99.90;;;;;;6245402;23;20008;-70
2023/02/25 00:17:50;;;;;;;70.25;42.38;;;10.20;99.90;;;;;;6244958;23;20506;-69
2023/02/25 00:20:19;;;;;;;73.70;43.17;;;10.30;99.90;;;;;;6245052;23;20004;-69
2023/02/25 00:22:45;;;;;;;72.05;42.90;;;10.20;99.90;;;;;;6246101;23;19996;-69
2023/02/25 00:25:12;;;;;;;66.88;42.67;;;10.30;99.90;;;;;;6246739;23;20449;-68
2023/02/25 00:27:38;;;;;;;69.88;42.38;;;10.30;99.90;;;;;;6246394;23;20004;-69
2023/02/25 00:30:04;;;;;;;73.85;44.58;;;10.30;99.90;;;;;;6246776;23;20330;-69
2023/02/25 00:32:30;;;;;;;70.07;44.17;;;10.30;99.90;;;;;;6247007;23;20004;-68
2023/02/25 00:34:56;;;;;;;66.88;41.90;;;10.30;99.90;;;;;;6246702;23;20034;-69
2023/02/25 00:37:22;;;;;;;69.22;43.08;;;10.30;99.90;;;;;;6246826;23;20026;-69
2023/02/25 00:39:47;;;;;;;64.18;40.15;;;10.30;99.90;;;;;;6246677;23;20011;-69
2023/02/25 00:42:17;;;;;;;65.00;40.60;;;10.30;99.90;;;;;;6246760;23;20067;-69
2023/02/25 00:44:44;;;;;;;64.80;41.78;;;10.30;99.90;;;;;;6246700;23;20058;-69
2023/02/25 00:47:10;;;;;;;65.68;43.60;;;10.30;99.90;;;;;;6246556;23;20016;-69
2023/02/25 00:49:36;;;;;;;73.05;43.33;;;10.30;99.90;;;;;;6246671;23;20408;-70
2023/02/25 00:52:02;;;;;;;70.75;43.40;;;10.30;99.90;;;;;;6246743;23;20079;-69
2023/02/25 00:54:28;;;;;;;71.22;43.90;;;10.30;99.90;;;;;;6246564;23;20071;-69
2023/02/25 00:56:54;;;;;;;66.15;43.05;;;10.30;99.90;;;;;;6246271;23;20028;-69
2023/02/25 00:59:20;;;;;;;67.45;43.45;;;10.30;99.90;;;;;;6246418;23;20027;-69
2023/02/25 01:01:46;;;;;;;77.93;46.13;;;10.30;99.90;;;;;;6246356;23;20071;-70
2023/02/25 01:04:11;;;;;;;69.10;44.83;;;10.30;99.90;;;;;;6246369;23;20004;-69
2023/02/25 01:06:37;;;;;;;75.65;46.42;;;10.30;99.90;;;;;;6246434;23;20019;-68
2023/02/25 01:09:05;;;;;;;65.38;42.95;;;10.30;99.90;;;;;;6246512;23;20050;-69
2023/02/25 01:11:34;;;;;;;67.35;43.55;;;10.30;99.90;;;;;;6219967;23;20008;-69
2023/02/25 01:14:04;;;;;;;62.92;42.00;;;10.30;99.90;;;;;;6246523;23;20414;-69
2023/02/25 01:16:31;;;;;;;69.03;43.35;;;10.30;99.90;;;;;;6246541;23;20031;-69
2023/02/25 01:18:59;;;;;;;69.15;43.55;;;10.30;99.90;;;;;;6246449;23;20028;-69
2023/02/25 01:21:29;;;;;;;65.85;43.13;;;10.30;99.90;;;;;;6246487;23;20004;-69
2023/02/25 01:24:01;;;;;;;71.65;43.40;;;10.30;99.90;;;;;;6246461;23;20418;-69
2023/02/25 01:26:29;;;;;;;67.75;42.55;;;10.30;99.90;;;;;;6246422;23;20019;-69
2023/02/25 01:28:55;;;;;;;75.70;45.53;;;10.30;99.90;;;;;;6246239;23;20000;-69
2023/02/25 01:31:27;;;;;;;65.93;42.30;;;10.40;99.90;;;;;;6246034;23;20338;-69
2023/02/25 01:33:54;;;;;;;;;;;10.40;99.90;;;;;;6246663;23;20004;-69
2023/02/25 01:36:19;;;;;;;73.85;44.20;;;10.30;99.90;;;;;;6246274;23;19927;-69
2023/02/25 01:38:45;;;;;;;71.80;43.97;;;10.40;99.90;;;;;;6246249;23;20482;-69
2023/02/25 01:41:11;;;;;;;76.47;45.97;;;10.40;99.90;;;;;;6246215;23;20005;-69
2023/02/25 01:43:36;;;;;;;78.82;46.75;;;10.40;99.90;;;;;;6245880;23;20000;-69
2023/02/25 01:46:02;;;;;;;79.20;47.13;;;10.40;99.90;;;;;;6246023;23;20019;-70
2023/02/25 01:48:31;;;;;;;68.82;44.55;;;10.40;99.90;;;;;;6246087;23;20015;-71
2023/02/25 01:51:04;;;;;;;71.63;44.67;;;10.40;99.90;;;;;;6246311;23;20027;-70
2023/02/25 01:53:34;;;;;;;;;;;10.40;99.90;;;;;;6246620;23;20024;-69
2023/02/25 01:56:01;;;;;;;83.22;46.28;;;10.30;99.90;;;;;;6246251;23;19908;-69
2023/02/25 01:58:27;;;;;;;76.45;44.17;;;10.30;99.90;;;;;;6243851;23;20058;-70
2023/02/25 02:00:54;;;;;;;76.20;47.10;;;10.30;99.90;;;;;;6242547;23;20054;-70
2023/02/25 02:03:24;;;;;;;79.85;47.08;;;10.30;99.90;;;;;;6242187;23;20034;-70
2023/02/25 02:06:13;;;;;;;74.57;47.67;;;10.30;99.90;;;;;;6245071;23;20008;-69
2023/02/25 02:08:41;;;;;;;74.70;45.45;;;10.20;99.90;;;;;;6245914;23;20075;-70
2023/02/25 02:11:06;;;;;;;72.50;44.63;;;10.20;99.90;;;;;;6245600;23;20004;-69
2023/02/25 02:13:35;;;;;;;75.50;47.03;;;10.20;99.90;;;;;;6245225;23;20075;-69
2023/02/25 02:16:32;;;;;;;73.90;45.63;;;10.20;99.90;;;;;;6245805;23;20028;-69
2023/02/25 02:19:20;;;;;;;72.38;44.53;;;10.20;99.90;;;;;;6245963;23;20028;-69
2023/02/25 02:22:03;;;;;;;72.30;43.63;;;10.20;99.90;;;;;;6218523;23;20004;-70
2023/02/25 02:24:50;;;;;;;73.00;44.08;;;10.20;99.90;;;;;;6246135;23;20008;-70
2023/02/25 02:27:42;;;;;;;70.38;44.00;;;10.20;99.90;;;;;;6245483;23;20008;-69
2023/02/25 02:30:25;;;;;;;73.45;43.90;;;10.20;99.90;;;;;;6244653;23;20058;-70
2023/02/25 02:33:26;;;;;;;65.25;41.40;;;10.20;99.90;;;;;;6245825;23;20007;-70
2023/02/25 02:36:26;;;;;;;63.20;39.63;;;10.20;99.90;;;;;;6197531;23;20419;-69
2023/02/25 02:38:59;;;;;;;64.32;40.03;;;10.30;99.90;;;;;;6245378;23;19996;-69
2023/02/25 02:41:25;;;;;;;;;;;10.30;99.90;;;;;;6246452;23;20082;-70
2023/02/25 02:44:05;;;;;;;59.97;36.70;;;10.30;99.90;;;;;;6245311;23;19939;-70
2023/02/25 02:46:39;;;;;;;64.18;36.65;;;10.30;99.90;;;;;;6245374;23;20008;-69
2023/02/25 02:49:10;;;;;;;58.28;38.05;;;10.30;99.90;;;;;;6245416;23;20106;-66
2023/02/25 02:51:49;;;;;;;56.13;36.03;;;10.30;99.90;;;;;;6245512;23;20004;-69
2023/02/25 02:54:16;;;;;;;55.70;35.33;;;10.30;99.90;;;;;;6245948;23;20000;-69
2023/02/25 02:56:45;;;;;;;62.33;36.63;;;10.30;99.90;;;;;;6245597;23;20010;-69
2023/02/25 02:59:24;;;;;;;51.45;34.60;;;10.30;99.90;;;;;;6245447;23;20001;-69
2023/02/25 03:01:58;;;;;;;55.40;33.05;;;10.30;99.90;;;;;;6245071;23;20043;-69
2023/02/25 03:04:29;;;;;;;45.80;31.27;;;10.40;99.90;;;;;;6218741;23;20370;-70
2023/02/25 03:07:00;;;;;;;48.28;30.48;;;10.40;99.90;;;;;;6245128;23;20008;-69
2023/02/25 03:09:35;;;;;;;41.22;27.98;;;10.40;99.90;;;;;;6245234;23;20012;-69
2023/02/25 03:12:01;;;;;;;46.17;27.63;;;10.40;99.90;;;;;;6245484;23;20039;-69
2023/02/25 03:14:26;;;;;;;40.20;27.85;;;10.40;99.90;;;;;;6245464;23;19996;-69
2023/02/25 03:16:55;;;;;;;48.10;28.98;;;10.40;99.90;;;;;;6245479;23;20007;-69
2023/02/25 03:19:59;;;;;;;43.53;28.17;;;10.40;99.90;;;;;;6245449;23;20012;-69
2023/02/25 03:22:38;;;;;;;46.25;27.25;;;10.50;99.90;;;;;;6244621;23;20015;-69
2023/02/25 03:25:20;;;;;;;47.53;29.52;;;10.40;99.90;;;;;;6245013;23;20399;-69
2023/02/25 03:27:48;;;;;;;42.67;28.20;;;10.50;99.90;;;;;;6245214;23;20366;-69
2023/02/25 03:30:20;;;;;;;42.38;26.50;;;10.50;99.90;;;;;;6245319;23;20007;-69
2023/02/25 03:32:51;;;;;;;47.80;27.83;;;10.50;99.90;;;;;;6245222;23;20000;-70
2023/02/25 03:35:19;;;;;;;41.03;27.98;;;10.50;99.90;;;;;;6245531;23;20665;-69
2023/02/25 03:37:49;;;;;;;42.85;26.83;;;10.50;99.90;;;;;;6245179;23;20004;-70
2023/02/25 03:40:17;;;;;;;40.38;26.90;;;10.50;99.90;;;;;;6244749;23;20058;-69
2023/02/25 03:42:57;;;;;;;47.65;27.75;;;10.50;99.90;;;;;;6245132;23;20339;-69
2023/02/25 03:45:24;;;;;;;44.22;27.67;;;10.50;99.90;;;;;;6245046;23;20031;-69
2023/02/25 03:47:50;;;;;;;44.53;29.27;;;10.50;99.90;;;;;;6244998;23;20012;-69
2023/02/25 03:50:28;;;;;;;40.50;26.48;;;10.50;99.90;;;;;;6245259;23;20419;-68
2023/02/25 03:52:54;;;;;;;45.33;27.60;;;10.50;99.90;;;;;;6244923;23;20084;-69
2023/02/25 03:55:20;;;;;;;40.08;26.27;;;10.50;99.90;;;;;;6244982;23;20024;-69
2023/02/25 03:57:49;;;;;;;43.72;28.58;;;10.50;99.90;;;;;;6246452;23;20004;-69
2023/02/25 04:00:23;;;;;;;45.50;27.67;;;10.50;99.90;;;;;;6247299;23;20000;-69
2023/02/25 04:02:50;;;;;;;46.15;28.13;;;10.50;99.90;;;;;;6247255;23;20008;-69
2023/02/25 04:05:17;;;;;;;46.40;28.00;;;10.50;99.90;;;;;;6247008;23;20019;-69
2023/02/25 04:07:44;;;;;;;44.33;28.17;;;10.50;99.90;;;;;;6220479;23;20004;-69
2023/02/25 04:10:12;;;;;;;46.83;27.63;;;10.50;99.90;;;;;;6247031;23;20000;-70
2023/02/25 04:12:37;;;;;;;38.72;27.10;;;10.50;99.90;;;;;;6247216;23;20000;-69
2023/02/25 04:15:04;;;;;;;44.30;27.40;;;10.50;99.90;;;;;;6247169;23;20075;-70
2023/02/25 04:17:31;;;;;;;47.08;27.65;;;10.50;99.90;;;;;;6247105;23;20023;-70
2023/02/25 04:19:57;;;;;;;45.95;28.60;;;10.50;99.90;;;;;;6246934;23;20469;-70
2023/02/25 04:22:23;;;;;;;37.97;27.20;;;10.50;99.90;;;;;;6246978;23;20000;-71
2023/02/25 04:24:48;;;;;;;36.42;25.63;;;10.50;99.90;;;;;;6246828;23;20000;-70
2023/02/25 04:27:14;;;;;;;39.83;26.63;;;10.50;99.90;;;;;;6247015;23;20000;-70
2023/02/25 04:29:41;;;;;;;38.42;27.20;;;10.50;99.90;;;;;;6243131;23;20024;-70
2023/02/25 04:32:07;;;;;;;46.83;27.10;;;10.50;99.90;;;;;;6243237;23;20001;-70
2023/02/25 04:34:32;;;;;;;46.05;27.90;;;10.50;99.90;;;;;;6246374;23;20011;-70
2023/02/25 04:37:01;;;;;;;47.70;28.90;;;10.50;99.90;;;;;;6247315;23;20004;-70
2023/02/25 04:39:27;;;;;;;48.05;27.70;;;10.50;99.90;;;;;;6246699;23;20434;-69
2023/02/25 04:41:53;;;;;;;51.28;29.35;;;10.60;99.90;;;;;;6246678;23;20000;-69
2023/02/25 04:44:18;;;;;;;49.55;30.48;;;10.60;99.90;;;;;;6246857;23;19996;-70
2023/02/25 04:46:44;;;;;;;52.03;29.52;;;10.50;99.90;;;;;;6246302;23;20427;-69
2023/02/25 04:49:10;;;;;;;48.22;29.92;;;10.50;99.90;;;;;;6246538;23;20083;-69
2023/02/25 04:51:37;;;;;;;45.13;29.98;;;10.50;99.90;;;;;;6246559;23;20388;-69
2023/02/25 04:54:04;;;;;;;44.17;28.65;;;10.50;99.90;;;;;;6243756;23;19996;-69
2023/02/25 04:56:30;;;;;;;53.25;28.13;;;10.60;99.90;;;;;;6243280;23;20012;-69
2023/02/25 04:58:56;;;;;;;46.90;28.88;;;10.60;99.90;;;;;;6243487;23;20006;-69
2023/02/25 05:01:22;;;;;;;51.50;31.20;;;10.50;99.90;;;;;;6245962;23;20000;-70
2023/02/25 05:03:48;;;;;;;45.20;29.40;;;10.60;99.90;;;;;;6246035;23;20004;-69
2023/02/25 05:06:14;;;;;;;49.58;31.20;;;10.50;99.90;;;;;;6246318;23;20046;-69
2023/02/25 05:08:40;;;;;;;52.05;31.05;;;10.50;99.90;;;;;;6245898;23;20509;-69
2023/02/25 05:11:06;;;;;;;46.90;30.10;;;10.50;99.90;;;;;;6246333;23;20010;-69
2023/02/25 05:13:31;;;;;;;49.60;30.45;;;10.50;99.90;;;;;;6246350;23;20027;-69
2023/02/25 05:16:08;;;;;;;48.17;30.27;;;10.50;99.90;;;;;;6246110;23;20000;-69
2023/02/25 05:18:39;;;;;;;40.35;29.30;;;10.50;99.90;;;;;;6246084;23;20004;-69
2023/02/25 05:21:13;;;;;;;46.83;29.63;;;10.50;99.90;;;;;;6218900;23;20373;-69
2023/02/25 05:23:40;;;;;;;44.45;30.75;;;10.40;99.90;;;;;;6245815;23;20043;-68
2023/02/25 05:26:06;;;;;;;50.88;31.42;;;10.50;99.90;;;;;;6246298;23;20008;-69
2023/02/25 05:28:32;;;;;;;46.35;31.35;;;10.40;99.90;;;;;;6247046;23;20010;-69
2023/02/25 05:30:58;;;;;;;48.92;31.98;;;10.50;99.90;;;;;;6246132;23;20119;-69
2023/02/25 05:33:25;;;;;;;54.83;32.53;;;10.40;99.90;;;;;;6246245;23;20467;-69
2023/02/25 05:35:50;;;;;;;43.72;31.92;;;10.40;99.90;;;;;;6219423;23;20000;-69
2023/02/25 05:38:16;;;;;;;53.30;32.22;;;10.40;99.90;;;;;;6246130;23;20015;-69
2023/02/25 05:40:42;;;;;;;57.47;32.92;;;10.40;99.90;;;;;;6246373;23;20043;-69
2023/02/25 05:43:08;;;;;;;54.10;32.97;;;10.40;99.90;;;;;;6246440;23;19996;-69
2023/02/25 05:45:34;;;;;;;53.15;32.72;;;10.40;99.90;;;;;;6245795;23;20008;-69
2023/02/25 05:47:59;;;;;;;52.47;33.80;;;10.40;99.90;;;;;;6244256;23;20012;-69
2023/02/25 05:50:27;;;;;;;55.90;32.78;;;10.40;99.90;;;;;;6245975;23;20001;-69
2023/02/25 05:52:52;;;;;;;59.35;33.22;;;10.40;99.90;;;;;;6245724;23;20423;-69
2023/02/25 05:55:18;;;;;;;54.85;32.47;;;10.40;99.90;;;;;;6246244;23;19997;-69
2023/02/25 05:57:45;;;;;;;51.83;33.85;;;10.40;99.90;;;;;;6246106;23;20072;-69
2023/02/25 06:00:13;;;;;;;48.55;34.38;;;10.40;99.90;;;;;;6245874;23;20008;-69
2023/02/25 06:02:40;;;;;;;52.15;34.25;;;10.40;99.90;;;;;;6245930;23;20000;-69
2023/02/25 06:05:06;;;;;;;53.30;34.00;;;10.40;99.90;;;;;;6245665;23;20006;-69
2023/02/25 06:07:32;;;;;;;55.00;33.75;;;10.40;99.90;;;;;;6245586;23;20014;-69
2023/02/25 06:09:59;;;;;;;46.85;33.55;;;10.40;99.90;;;;;;6245835;23;20054;-69
2023/02/25 06:12:29;;;;;;;54.10;32.33;;;10.40;99.90;;;;;;6245615;23;20004;-69
2023/02/25 06:14:55;;;;;;;53.10;33.45;;;10.40;99.90;;;;;;6245492;23;20319;-69
2023/02/25 06:17:23;;;;;;;51.53;32.50;;;10.40;99.90;;;;;;6245181;23;20075;-69
2023/02/25 06:19:50;;;;;;;51.38;32.42;;;10.40;99.90;;;;;;6245094;23;20002;-69
2023/02/25 06:22:20;;;;;;;52.28;33.97;;;10.30;99.90;;;;;;6245418;23;20008;-69
2023/02/25 06:24:46;;;;;;;53.65;34.53;;;10.30;99.90;;;;;;6245342;23;19996;-69
2023/02/25 06:27:14;;;;;;;49.50;32.35;;;10.30;99.90;;;;;;6245805;23;20015;-71
2023/02/25 06:29:40;;;;;;;53.35;33.03;;;10.30;99.90;;;;;;6245523;23;20054;-69
2023/02/25 06:32:10;;;;;;;51.53;33.38;;;10.30;99.90;;;;;;6245006;23;20003;-69
2023/02/25 06:34:37;;;;;;;55.50;35.08;;;10.30;99.90;;;;;;6245112;23;20000;-69
2023/02/25 06:37:03;;;;;;;53.00;33.72;;;10.40;99.90;;;;;;6245580;23;20389;-69
2023/02/25 06:39:29;;;;;;;55.58;34.95;;;10.40;99.90;;;;;;6245683;23;20007;-69
2023/02/25 06:41:55;;;;;;;54.35;34.05;;;10.30;99.90;;;;;;6218346;23;20006;-69
2023/02/25 06:44:20;;;;;;;54.42;34.83;;;10.30;99.90;;;;;;6245318;23;20065;-71
2023/02/25 06:46:50;;;;;;;53.55;34.22;;;10.30;99.90;;;;;;6245577;23;20019;-71
2023/02/25 06:49:17;;;;;;;58.65;35.70;;;10.30;99.90;;;;;;6244904;23;20071;-72
2023/02/25 06:51:42;;;;;;;59.53;36.58;;;10.30;99.90;;;;;;6245168;23;20000;-71
2023/02/25 06:54:08;;;;;;;54.80;35.25;;;10.30;99.90;;;;;;6245372;23;20003;-71
2023/02/25 06:56:34;;;;;;;48.97;34.10;;;10.30;99.90;;;;;;6245394;23;20004;-73
2023/02/25 06:59:00;;;;;;;51.30;35.25;;;10.30;99.90;;;;;;6245285;23;20000;-71
2023/02/25 07:01:26;;;;;;;57.33;36.53;;;10.30;99.90;;;;;;6245407;23;20000;-69
2023/02/25 07:03:52;;;;;;;56.20;33.55;;;10.30;99.90;;;;;;6245213;23;20034;-69
2023/02/25 07:06:18;;;;;;;54.78;34.58;;;10.30;99.90;;;;;;6245228;23;20012;-68
2023/02/25 07:08:44;;;;;;;60.25;34.60;;;10.30;99.90;;;;;;6245320;23;20422;-69
2023/02/25 07:11:16;;;;;;;52.33;33.75;;;10.30;99.90;;;;;;6245814;23;20000;-69
2023/02/25 07:13:42;;;;;;;64.00;36.20;;;10.30;99.90;;;;;;6245563;23;20004;-69
2023/02/25 07:16:09;;;;;;;61.33;35.83;;;10.30;99.90;;;;;;6245427;23;20032;-69
2023/02/25 07:18:35;;;;;;;65.63;36.10;;;10.40;99.90;;;;;;6245810;23;20010;-68
2023/02/25 07:21:00;;;;;;;63.08;36.80;;;10.40;99.90;;;;;;6244935;23;20031;-68
2023/02/25 07:23:26;;;;;;;51.95;36.35;;;10.40;99.90;;;;;;6244976;23;20000;-70
2023/02/25 07:25:52;;;;;;;54.42;36.58;;;10.40;99.90;;;;;;6244879;23;20019;-69
2023/02/25 07:28:18;;;;;;;64.43;38.22;;;10.40;99.90;;;;;;6243467;23;20071;-71
2023/02/25 07:30:44;;;;;;;60.22;37.67;;;10.40;99.90;;;;;;6241303;23;20090;-72
2023/02/25 07:33:10;;;;;;;59.80;38.33;;;10.40;99.90;;;;;;6241908;23;20007;-71
2023/02/25 07:35:36;;;;;;;60.90;38.30;;;10.40;99.90;;;;;;6243328;23;20049;-72
2023/02/25 07:38:01;;;;;;;60.38;39.08;;;10.40;99.90;;;;;;6244578;23;20301;-71
2023/02/25 07:40:27;;;;;;;63.67;38.53;;;10.40;99.90;;;;;;6244412;23;20073;-72
2023/02/25 07:42:52;;;;;;;60.17;38.00;;;10.40;99.90;;;;;;6217939;23;20046;-74
2023/02/25 07:45:18;;;;;;;60.75;39.72;;;10.40;99.90;;;;;;6242065;23;20431;-69
2023/02/25 07:47:44;;;;;;;62.60;38.83;;;10.40;99.90;;;;;;6241952;23;20374;-69
2023/02/25 07:50:11;;;;;;;52.28;35.63;;;10.40;99.90;;;;;;6243527;23;20008;-69
2023/02/25 07:52:37;;;;;;;66.35;38.45;;;10.50;99.90;;;;;;6218128;23;20094;-69
2023/02/25 07:55:06;;;;;;;60.58;38.95;;;10.50;99.90;;;;;;6244810;23;20000;-69
2023/02/25 07:57:32;;;;;;;60.33;38.50;;;10.50;99.90;;;;;;6245191;23;20001;-70
2023/02/25 07:59:58;;;;;;;57.17;36.85;;;10.50;99.90;;;;;;6245033;23;20008;-69
2023/02/25 08:02:24;;;;;;;59.13;37.30;;;10.50;99.90;;;;;;6244876;23;20058;-69
2023/02/25 08:04:50;;;;;;;61.72;38.90;;;10.50;99.90;;;;;;6244469;23;20004;-69
2023/02/25 08:07:16;;;;;;;61.92;37.33;;;10.50;99.90;;;;;;6244327;23;20489;-71
2023/02/25 08:09:42;;;;;;;55.45;37.50;;;10.50;99.90;;;;;;6241381;23;20449;-71
2023/02/25 08:12:08;;;;;;;57.00;35.78;;;10.50;99.90;;;;;;6241502;23;20008;-70
2023/02/25 08:14:34;;;;;;;59.65;36.90;;;10.50;99.90;;;;;;6242413;23;20333;-69
2023/02/25 08:17:00;;;;;;;65.00;38.67;;;10.50;99.90;;;;;;6244243;23;20007;-69
2023/02/25 08:19:27;;;;;;;54.83;36.83;;;10.50;99.90;;;;;;6244622;23;20000;-69
2023/02/25 08:21:53;;;;;;;61.42;37.10;;;10.60;99.90;;;;;;6244793;23;20007;-70
2023/02/25 08:24:22;;;;;;;63.25;38.47;;;10.60;99.90;;;;;;6244335;23;20117;-69
2023/02/25 08:26:48;;;;;;;63.40;36.92;;;10.60;99.90;;;;;;6244882;23;20016;-70
2023/02/25 08:29:14;;;;;;;61.13;40.35;;;10.60;99.90;;;;;;6244605;23;20385;-70
2023/02/25 08:31:39;;;;;;;65.20;38.83;;;10.60;99.90;;;;;;6244169;23;20004;-70
2023/02/25 08:34:06;;;;;;;65.38;37.85;;;10.60;99.90;;;;;;6244792;23;20327;-70
2023/02/25 08:36:31;;;;;;;57.05;38.00;;;10.60;99.90;;;;;;6244721;23;20008;-70
2023/02/25 08:38:58;;;;;;;62.45;38.80;;;10.60;99.90;;;;;;6244485;23;20000;-68
2023/02/25 08:41:26;;;;;;;63.20;39.97;;;10.60;99.90;;;;;;6244460;23;20322;-70
2023/02/25 08:43:54;;;;;;;61.83;40.28;;;10.60;99.90;;;;;;6245755;23;19996;-69
2023/02/25 08:46:25;;;;;;;61.90;38.38;;;10.60;99.90;;;;;;6246443;23;20092;-70
2023/02/25 08:48:52;;;;;;;68.78;38.92;;;10.70;99.90;;;;;;6246928;22;20019;-70
2023/02/25 08:51:20;;;;;;;60.28;38.47;;;10.60;99.90;;;;;;6246677;23;20000;-70
2023/02/25 08:53:45;;;;;;;68.00;40.90;;;10.70;99.90;;;;;;6246078;23;20031;-69
2023/02/25 08:56:13;;;;;;;75.47;45.40;;;10.70;99.90;;;;;;6219522;23;20054;-69
2023/02/25 08:58:39;;;;;;;63.05;41.22;;;10.70;99.90;;;;;;6246695;23;20010;-71
2023/02/25 09:01:11;;;;;;;67.80;43.45;;;10.70;99.90;;;;;;6245942;23;19996;-70
2023/02/25 09:03:52;;;;;;;66.20;44.13;;;10.70;99.90;;;;;;6246404;23;20008;-70
2023/02/25 09:06:20;;;;;;;74.15;45.28;;;10.70;99.90;;;;;;6246185;23;20014;-70
2023/02/25 09:08:46;;;;;;;77.13;46.70;;;10.80;99.90;;;;;;6246073;23;20395;-70
2023/02/25 09:11:11;;;;;;;74.43;45.20;;;10.80;99.90;;;;;;6246175;23;20000;-69
2023/02/25 09:13:37;;;;;;;71.15;44.40;;;10.80;99.90;;;;;;6246244;23;20056;-70
2023/02/25 09:16:03;;;;;;;76.00;46.20;;;10.80;99.90;;;;;;6246144;23;20008;-70
2023/02/25 09:18:29;;;;;;;71.50;44.92;;;10.90;99.90;;;;;;6246414;23;19992;-70
2023/02/25 09:20:55;;;;;;;72.03;43.42;;;10.90;99.90;;;;;;6246391;23;20031;-69
2023/02/25 09:23:21;;;;;;;59.47;40.33;;;10.90;99.90;;;;;;6245779;23;20423;-70
2023/02/25 09:25:47;;;;;;;70.30;40.85;;;11.00;99.90;;;;;;6246590;23;20008;-71
2023/02/25 09:28:12;;;;;;;62.00;39.17;;;11.00;99.90;;;;;;6246814;23;19996;-69
2023/02/25 09:30:38;;;;;;;61.17;38.70;;;11.00;99.90;;;;;;6219655;23;20458;-69
2023/02/25 09:33:04;;;;;;;71.30;38.10;;;11.00;99.90;;;;;;6246578;23;20075;-70
2023/02/25 09:35:30;;;;;;;59.50;36.38;;;11.10;99.90;;;;;;6243021;23;20000;-69
2023/02/25 09:37:57;;;;;;;62.42;37.50;;;11.10;99.90;;;;;;6243328;23;20012;-69
2023/02/25 09:40:23;;;;;;;62.75;37.28;;;11.10;99.90;;;;;;6246160;23;19996;-69
2023/02/25 09:43:25;;;;;;;63.88;38.50;;;11.10;99.90;;;;;;6245365;23;20004;-69
2023/02/25 09:45:52;;;;;;;65.18;37.30;;;11.10;99.90;;;;;;6242786;23;20012;-70
2023/02/25 09:48:27;;;;;;;58.47;35.72;;;11.10;99.90;;;;;;6243056;23;20008;-77
2023/02/25 09:51:30;;;;;;;64.63;37.88;;;11.10;99.90;;;;;;6245548;23;20004;-69
2023/02/25 09:54:29;;;;;;;62.38;37.33;;;11.10;99.90;;;;;;6240779;23;20004;-70
2023/02/25 09:56:58;;;;;;;52.55;35.13;;;11.10;99.90;;;;;;6246338;23;20440;-70
2023/02/25 09:59:27;;;;;;;55.22;34.75;;;11.10;99.90;;;;;;6246306;23;19996;-69
2023/02/25 10:02:05;;;;;;;69.32;36.28;;;11.20;99.90;;;;;;6246244;23;20004;-69
2023/02/25 10:04:50;;;;;;;55.58;34.53;;;11.20;99.90;;;;;;6246207;23;20438;-70
2023/02/25 10:07:23;;;;;;;55.13;34.50;;;11.10;99.90;;;;;;6245589;23;20446;-70
2023/02/25 10:10:24;;;;;;;68.28;34.13;;;11.10;99.90;;;;;;6245884;23;19996;-70
2023/02/25 10:13:02;;;;;;;53.70;34.63;;;11.20;99.90;;;;;;6245955;23;20007;-69
2023/02/25 10:15:49;;;;;;;61.55;33.22;;;11.20;99.90;;;;;;6246405;23;20004;-69
2023/02/25 10:18:32;;;;;;;58.08;33.72;;;11.20;99.90;;;;;;6246064;23;19996;-70
2023/02/25 10:21:17;;;;;;;50.53;33.50;;;11.20;99.90;;;;;;6245473;23;20000;-69
2023/02/25 10:24:12;;;;;;;52.35;32.90;;;11.20;99.90;;;;;;6246038;23;20032;-72
2023/02/25 10:26:43;;;;;;;53.05;33.03;;;11.20;99.90;;;;;;6226066;23;20020;-70
2023/02/25 10:29:33;;;;;;;58.67;33.17;;;11.30;99.90;;;;;;6245860;23;20006;-70
2023/02/25 10:32:20;;;;;;;59.20;32.97;;;11.30;99.90;;;;;;6246305;23;20089;-69
2023/02/25 10:34:46;;;;;;;56.67;32.63;;;11.30;99.90;;;;;;6246072;23;20000;-70
2023/02/25 10:37:19;;;;;;;61.85;31.73;;;11.30;99.90;;;;;;6245977;23;20003;-70
2023/02/25 10:39:47;;;;;;;;;;;11.30;99.90;;;;;;6246528;23;20020;-70
2023/02/25 10:42:14;;;;;;;58.38;30.98;;;11.30;99.90;;;;;;6246094;23;20203;-69
2023/02/25 10:44:42;;;;;;;63.08;32.15;;;11.40;99.90;;;;;;6245663;23;20000;-69
2023/02/25 10:47:14;;;;;;;51.42;31.35;;;11.40;99.90;;;;;;6245534;23;20087;-69
2023/02/25 10:49:40;;;;;;;55.33;31.98;;;11.40;99.90;;;;;;6245895;23;20047;-69
2023/02/25 10:52:13;;;;;;;48.83;32.97;;;11.40;99.90;;;;;;6245676;23;20008;-70
2023/02/25 10:54:50;;;;;;;56.22;32.60;;;11.40;99.90;;;;;;6246025;23;20135;-69
2023/02/25 10:57:24;;;;;;;49.78;32.05;;;11.40;99.90;;;;;;6246029;23;20004;-69
2023/02/25 11:00:12;;;;;;;52.70;32.53;;;11.40;99.90;;;;;;6245884;23;20008;-70
2023/02/25 11:02:42;;;;;;;65.43;31.33;;;11.50;99.90;;;;;;6245708;23;20376;-70
2023/02/25 11:05:29;;;;;;;56.10;27.60;;;11.50;99.90;;;;;;6245050;23;20035;-70
2023/02/25 11:07:55;;;;;;;51.83;28.58;;;11.50;99.90;;;;;;6245860;23;20058;-69
2023/02/25 11:10:22;;;;;;;58.00;29.13;;;11.50;99.90;;;;;;6245575;23;19996;-70
2023/02/25 11:12:51;;;;;;;48.42;27.08;;;11.60;99.90;;;;;;6245515;23;20374;-70
2023/02/25 11:15:37;;;;;;;48.78;27.00;;;11.50;99.90;;;;;;6245796;23;20031;-70
2023/02/25 11:18:26;;;;;;;49.72;27.40;;;11.60;99.90;;;;;;6245482;23;20027;-69
2023/02/25 11:21:07;;;;;;;50.88;27.00;;;11.60;99.90;;;;;;6245191;23;20036;-70
2023/02/25 11:23:45;;;;;;;50.65;26.23;;;11.60;99.90;;;;;;6245749;23;20003;-70
2023/02/25 11:26:30;;;;;;;48.53;26.73;;;11.60;99.90;;;;;;6245933;23;20039;-70
2023/02/25 11:29:03;;;;;;;52.70;27.42;;;11.60;99.90;;;;;;6245831;23;20358;-69
2023/02/25 11:31:40;;;;;;;50.88;27.05;;;11.60;99.90;;;;;;6245460;23;20027;-71
2023/02/25 11:34:19;;;;;;;51.38;26.30;;;11.70;99.90;;;;;;6245394;23;20000;-77
2023/02/25 11:36:45;;;;;;;53.28;27.48;;;11.70;99.90;;;;;;6245324;23;19996;-76
2023/02/25 11:39:21;;;;;;;51.60;24.95;;;11.70;99.90;;;;;;6245396;23;20453;-77
2023/02/25 11:41:49;;;;;;;46.50;25.40;;;11.70;99.90;;;;;;6245736;23;20011;-77
2023/02/25 11:44:26;;;;;;;46.90;23.13;;;11.70;99.90;;;;;;6245379;23;20005;-76
2023/02/25 11:47:05;;;;;;;46.97;23.27;;;11.70;99.90;;;;;;6245288;23;20036;-77
2023/02/25 11:49:40;;;;;;;48.33;22.60;;;11.80;99.90;;;;;;6244986;23;20001;-75
2023/02/25 11:52:33;;;;;;;44.05;20.55;;;11.70;99.90;;;;;;6218190;23;20005;-76
2023/02/25 11:55:18;;;;;;;39.47;20.67;;;11.70;99.90;;;;;;6245473;23;20028;-76
2023/02/25 11:57:57;;;;;;;43.10;21.15;;;11.80;99.90;;;;;;6245967;23;20004;-75
2023/02/25 12:00:44;;;;;;;42.95;21.77;;;11.80;99.90;;;;;;6245673;23;20001;-75
2023/02/25 12:03:59;;;;;;;48.28;20.73;;;11.80;99.90;;;;;;6245280;23;19996;-75
2023/02/25 12:06:43;;;;;;;34.13;18.90;;;11.80;99.90;;;;;;6180062;23;20012;-76
2023/02/25 12:09:37;;;;;;;41.03;19.77;;;11.90;99.90;;;;;;6245160;23;20000;-74
2023/02/25 12:12:08;;;;;;;39.83;20.70;;;11.80;99.90;;;;;;6245316;23;20331;-75
2023/02/25 12:15:00;;;;;;;36.40;19.42;;;11.90;99.90;;;;;;6244952;23;19996;-76
2023/02/25 12:17:47;;;;;;;40.17;19.27;;;11.90;99.90;;;;;;6187766;23;20000;-76
2023/02/25 12:20:37;;;;;;;39.08;17.88;;;11.90;99.90;;;;;;6247212;23;20004;-77
2023/02/25 12:23:28;;;;;;;40.65;20.88;;;11.90;99.90;;;;;;6247110;23;20008;-77
2023/02/25 12:26:23;;;;;;;36.13;20.05;;;11.90;99.90;;;;;;6246698;23;20075;-77
2023/02/25 12:29:08;;;;;;;46.47;18.23;;;11.90;99.90;;;;;;6246993;23;20074;-76
2023/02/25 12:31:55;;;;;;;34.67;18.17;;;11.90;99.90;;;;;;6247241;23;20384;-69
2023/02/25 12:34:36;;;;;;;37.72;20.23;;;11.90;99.90;;;;;;6246950;23;20103;-74
2023/02/25 12:37:16;;;;;;;44.28;20.95;;;12.00;99.90;;;;;;6246630;23;20058;-74
2023/02/25 12:39:47;;;;;;;52.25;21.15;;;12.00;99.90;;;;;;6246698;23;20004;-71
2023/02/25 12:42:32;;;;;;;36.50;20.60;;;12.00;99.90;;;;;;6247165;23;20000;-73
2023/02/25 12:45:19;;;;;;;40.60;22.50;;;12.00;99.90;;;;;;6246851;23;19996;-73
2023/02/25 12:47:56;;;;;;;43.30;22.20;;;12.00;99.90;;;;;;6246339;23;20012;-73